HH8D weather

Alexandria Heliport
Salsk, Rostov Oblast, Russia

Public forecast

Using degrees Celsius for public forecast. Weather courtesy of forecast.io.

METAR (pilot weather report)

Closest report is Stavropol Shpakovskoye Airport, 85.0 nm (157.4 km) SSE. Retrieved 2019/08/24 17:30 UTC (0 seconds ago):

URMT 241730Z 00000MPS 9999 BKN040CB 24/16 Q1015 R07/010070 NOSIG RMK QFE721

TAF (pilot weather forecast)

Forecast is more than 12 hours old.

Closest forecast is Stavropol Shpakovskoye Airport, 85.0 nm (157.4 km) SSE. Retrieved 2019/08/03 03:15 UTC (22 days ago):

TAF URMT 030200Z 0303/0321 31005G12MPS 9999 SCT020